Skip Navigation LinksHome page > Weather > Current weather Skip Navigation Links

Current Weather

Chicago O'Hare Intl, Chicago

For information only: do not use for flight planning or navigation.
Latest weather
Observation time Thursday, July 30, 2015 2:51 AM CDT
Local time Thursday, July 30, 2015 3:08 AM CDT
Flight conditions Visual Meteorological Conditions
Winds
Wind direction West (270°)
Wind speed 8 mph
Visibility 10 mi.
Sky condition
Ceiling unlimited
Sky clear
Temperature 69°F
Dewpoint 57°F
Altimeter 30.01 in.Hg
Derived measurements
Relative humidity 65%
Density altitude 1442 ft.
Sea-level pressure 30.00 in.Hg
Remarks
Automated weather observing station with precipitation discriminator.
METAR KORD 300751Z 27007KT 10SM CLR 21/14 A3001 RMK AO2 SLP158 T02060139

Settings

Location code

InnerDrive.Weather 4.0.5567.0 Release CLR 4.0.30319.34014
Copyright ©2015 Inner Drive Technology. All rights reserved. Portions Copyright ©1986-2015 David Braverman.

Find weather

Site navigation


Skip Navigation Links

Place info

Page info

PayPal - The safer, easier way to pay online!

Return home.

Copyright ©2015 Inner Drive Technology. Purveyors of fine, hand-crafted computer software. Page printed 2015-07-30T08:08:45 UTC.